Time;durP1;ratioP1;P1;durP2;ratioP2;P2;SDS_P1;SDS_P2;PMS_P1;PMS_P2;Temp;Humidity;BMP_temperature;BMP_pressure;BME280_temperature;BME280_humidity;BME280_pressure;Samples;Min_cycle;Max_cycle;Signal;HPM_P1;HPM_P2
2022/03/07 00:01:50;;;;;;;;;;;;;;;28.78;19.97;100747.66;5041620;28;1155;-41
2022/03/07 00:04:17;;;;;;;;;;;;;;;28.55;20.36;100753.28;5041312;28;885;-44
2022/03/07 00:06:42;;;;;;;;;;;;;;;28.57;20.25;100743.09;5066095;28;1083;-43
2022/03/07 00:09:08;;;;;;;;;;;;;;;28.68;20.01;100747.16;5066950;28;1200;-43
2022/03/07 00:11:34;;;;;;;;;;;;;;;28.67;20.17;100753.59;5067060;28;1130;-43
2022/03/07 00:13:59;;;;;;;;;;;;;;;28.65;20.17;100748.38;5046905;28;1135;-44
2022/03/07 00:16:24;;;;;;;;;;;;;;;28.52;19.92;100737.44;5077100;28;766;-42
2022/03/07 00:18:50;;;;;;;;;;;;;;;28.73;19.96;100732.00;5095839;28;1014;-44
2022/03/07 00:21:15;;;;;;;;;;;;;;;28.64;20.12;100727.78;5095440;28;1976;-43
2022/03/07 00:23:40;;;;;;;;;;;;;;;28.79;20.08;100733.13;5096298;28;788;-42
2022/03/07 00:26:06;;;;;;;;;;;;;;;28.89;20.08;100727.38;5095835;28;975;-42
2022/03/07 00:28:31;;;;;;;;;;;;;;;29.37;19.52;100716.88;5093410;28;784;-43
2022/03/07 00:30:56;;;;;;;;;;;;;;;29.18;19.83;100714.69;5087910;28;717;-42
2022/03/07 00:33:22;;;;;;;;;;;;;;;29.45;19.32;100714.84;5095962;28;896;-44
2022/03/07 00:35:47;;;;;;;;;;;;;;;29.03;20.03;100705.84;5095690;28;734;-43
2022/03/07 00:38:12;;;;;;;;;;;;;;;28.95;20.01;100706.78;5095817;28;979;-44
2022/03/07 00:40:37;;;;;;;;;;;;;;;29.04;19.89;100700.22;5095239;28;1901;-46
2022/03/07 00:43:07;;;;;;;;;;;;;;;29.03;20.07;100695.81;5074787;28;934;-43
2022/03/07 00:45:33;;;;;;;;;;;;;;;29.16;20.17;100700.50;5089847;28;829;-43
2022/03/07 00:47:58;;;;;;;;;;;;;;;29.16;20.17;100688.84;5076297;28;920;-42
2022/03/07 00:50:24;;;;;;;;;;;;;;;29.24;20.11;100691.38;5057612;28;845;-46
2022/03/07 00:52:49;;;;;;;;;;;;;;;29.28;19.80;100691.84;5075997;28;983;-44
2022/03/07 00:55:14;;;;;;;;;;;;;;;29.20;20.00;100695.50;5077365;28;818;-45
2022/03/07 00:57:39;;;;;;;;;;;;;;;29.23;19.95;100686.16;5094924;28;849;-44
2022/03/07 01:00:05;;;;;;;;;;;;;;;29.29;20.04;100690.78;5095221;28;1956;-44
2022/03/07 01:02:30;;;;;;;;;;;;;;;29.33;20.00;100683.91;5056748;28;1061;-43
2022/03/07 01:04:56;;;;;;;;;;;;;;;29.28;19.93;100687.22;5075984;28;774;-44
2022/03/07 01:07:21;;;;;;;;;;;;;;;29.40;20.16;100681.25;5080208;28;1171;-43
2022/03/07 01:09:47;;;;;;;;;;;;;;;30.26;18.95;100694.56;5095255;28;782;-43
2022/03/07 01:12:12;;;;;;;;;;;;;;;30.84;18.08;100693.16;5095544;28;773;-45
2022/03/07 01:14:37;;;;;;;;;;;;;;;29.82;19.53;100697.53;5096633;28;865;-44
2022/03/07 01:17:03;;;;;;;;;;;;;;;29.60;20.06;100686.78;5081497;28;894;-44
2022/03/07 01:19:28;;;;;;;;;;;;;;;29.45;20.23;100682.31;5077873;28;1910;-45
2022/03/07 01:21:53;;;;;;;;;;;;;;;29.27;20.26;100673.88;5093169;28;767;-43
2022/03/07 01:24:19;;;;;;;;;;;;;;;29.17;20.42;100685.06;5080311;28;987;-45
2022/03/07 01:26:45;;;;;;;;;;;;;;;29.19;20.41;100683.88;5099251;28;788;-46
2022/03/07 01:29:11;;;;;;;;;;;;;;;29.19;20.38;100681.16;5098809;28;935;-45
2022/03/07 01:31:36;;;;;;;;;;;;;;;29.24;20.58;100672.44;5086571;28;917;-45
2022/03/07 01:34:01;;;;;;;;;;;;;;;29.34;20.36;100664.75;5094129;28;832;-43
2022/03/07 01:36:27;;;;;;;;;;;;;;;29.54;20.17;100663.19;5098906;28;790;-43
2022/03/07 01:38:52;;;;;;;;;;;;;;;29.46;20.27;100662.31;5098499;28;934;-43
2022/03/07 01:41:17;;;;;;;;;;;;;;;29.60;20.21;100659.69;5098931;28;1981;-44
2022/03/07 01:43:42;;;;;;;;;;;;;;;29.62;20.34;100668.47;5098767;28;750;-43
2022/03/07 01:46:09;;;;;;;;;;;;;;;29.65;20.36;100669.91;5078355;28;855;-44
2022/03/07 01:48:35;;;;;;;;;;;;;;;29.65;20.08;100670.75;5072686;28;1520;-45
2022/03/07 01:51:00;;;;;;;;;;;;;;;30.41;19.19;100662.63;5079160;28;900;-43
2022/03/07 01:53:25;;;;;;;;;;;;;;;31.06;18.59;100665.75;5079150;28;817;-45
2022/03/07 01:55:50;;;;;;;;;;;;;;;29.96;19.99;100657.75;5079515;28;798;-45
2022/03/07 01:58:16;;;;;;;;;;;;;;;29.76;20.15;100647.66;5083508;28;873;-45
2022/03/07 02:00:41;;;;;;;;;;;;;;;29.87;20.18;100650.81;5088497;28;1959;-43
2022/03/07 02:03:06;;;;;;;;;;;;;;;29.57;20.58;100654.66;5095007;28;830;-44
2022/03/07 02:05:32;;;;;;;;;;;;;;;29.34;20.84;100647.69;5091915;28;1252;-43
2022/03/07 02:07:57;;;;;;;;;;;;;;;29.40;20.79;100656.84;5069492;28;1156;-42
2022/03/07 02:10:25;;;;;;;;;;;;;;;29.41;20.75;100661.25;5078721;28;773;-43
2022/03/07 02:12:50;;;;;;;;;;;;;;;29.49;20.61;100652.97;5095029;28;797;-43
2022/03/07 02:15:16;;;;;;;;;;;;;;;29.62;20.44;100654.91;5095817;28;904;-43
2022/03/07 02:17:43;;;;;;;;;;;;;;;29.62;20.44;100659.50;5077868;28;838;-43
2022/03/07 02:20:08;;;;;;;;;;;;;;;29.62;20.58;100660.34;5074686;28;1906;-43
2022/03/07 02:22:34;;;;;;;;;;;;;;;29.69;20.48;100657.66;5078654;28;1367;-45
2022/03/07 02:24:59;;;;;;;;;;;;;;;29.75;20.45;100661.41;5093399;28;829;-44
2022/03/07 02:27:24;;;;;;;;;;;;;;;29.73;20.57;100655.38;5096408;28;773;-42
2022/03/07 02:29:50;;;;;;;;;;;;;;;30.62;19.25;100673.47;5098055;28;845;-45
2022/03/07 02:32:15;;;;;;;;;;;;;;;31.23;18.36;100673.44;5078392;28;1044;-44
2022/03/07 02:34:40;;;;;;;;;;;;;;;30.08;20.11;100673.41;5078466;28;789;-43
2022/03/07 02:37:06;;;;;;;;;;;;;;;29.64;20.65;100671.81;5084847;28;812;-44
2022/03/07 02:39:31;;;;;;;;;;;;;;;29.44;20.96;100672.53;5097765;28;1968;-44
2022/03/07 02:41:56;;;;;;;;;;;;;;;29.27;21.04;100673.88;5078721;28;818;-42
2022/03/07 02:44:22;;;;;;;;;;;;;;;29.27;21.19;100658.47;5097565;28;990;-41
2022/03/07 02:46:47;;;;;;;;;;;;;;;29.34;20.90;100658.50;5083425;28;856;-43
2022/03/07 02:49:12;;;;;;;;;;;;;;;29.41;20.86;100656.66;5082607;28;928;-45
2022/03/07 02:51:38;;;;;;;;;;;;;;;29.52;20.83;100657.13;5097604;28;816;-45
2022/03/07 02:54:03;;;;;;;;;;;;;;;29.39;21.03;100661.47;5097625;28;836;-42
2022/03/07 02:56:29;;;;;;;;;;;;;;;29.65;20.59;100662.63;5097488;28;735;-43
2022/03/07 02:58:54;;;;;;;;;;;;;;;29.76;20.72;100663.09;5097016;28;1475;-43
2022/03/07 03:01:19;;;;;;;;;;;;;;;29.75;20.63;100669.53;5083866;28;1972;-43
2022/03/07 03:03:44;;;;;;;;;;;;;;;29.79;20.65;100671.66;5091432;28;762;-44
2022/03/07 03:06:10;;;;;;;;;;;;;;;29.89;20.43;100676.69;5097632;28;1087;-45
2022/03/07 03:08:35;;;;;;;;;;;;;;;30.43;19.56;100678.69;5085747;28;1411;-43
2022/03/07 03:11:01;;;;;;;;;;;;;;;31.18;18.71;100668.63;5096821;28;863;-44
2022/03/07 03:13:26;;;;;;;;;;;;;;;31.20;18.03;100677.41;5097229;28;810;-45
2022/03/07 03:15:52;;;;;;;;;;;;;;;30.87;18.92;100675.59;5089648;28;906;-45
2022/03/07 03:18:17;;;;;;;;;;;;;;;31.19;19.12;100673.03;5096777;28;888;-43
2022/03/07 03:20:43;;;;;;;;;;;;;;;31.31;18.44;100666.94;5096967;28;1918;-43
2022/03/07 03:23:08;;;;;;;;;;;;;;;31.32;18.17;100674.88;5096935;28;873;-43
2022/03/07 03:25:34;;;;;;;;;;;;;;;31.09;18.40;100675.34;5096968;28;758;-44
2022/03/07 03:27:59;;;;;;;;;;;;;;;31.05;18.72;100677.66;5092588;28;769;-42
2022/03/07 03:30:24;;;;;;;;;;;;;;;30.91;18.79;100679.56;5075469;28;1126;-43
2022/03/07 03:32:49;;;;;;;;;;;;;;;30.85;18.99;100683.94;5096546;28;805;-44
2022/03/07 03:35:15;;;;;;;;;;;;;;;30.65;18.98;100679.34;5096729;28;816;-44
2022/03/07 03:37:40;;;;;;;;;;;;;;;30.57;19.38;100682.25;5096374;28;891;-43
2022/03/07 03:40:06;;;;;;;;;;;;;;;30.53;19.23;100686.44;5085123;28;1894;-43
2022/03/07 03:42:31;;;;;;;;;;;;;;;30.35;19.43;100684.31;5094470;28;832;-42
2022/03/07 03:44:57;;;;;;;;;;;;;;;30.25;19.36;100679.28;5096371;28;893;-44
2022/03/07 03:47:22;;;;;;;;;;;;;;;30.14;19.61;100676.13;5090628;28;1123;-43
2022/03/07 03:49:47;;;;;;;;;;;;;;;30.02;19.63;100681.31;5096663;28;774;-43
2022/03/07 03:52:12;;;;;;;;;;;;;;;29.91;19.56;100671.88;5091489;28;1180;-42
2022/03/07 03:54:38;;;;;;;;;;;;;;;29.72;20.24;100668.09;5074482;28;1273;-43
2022/03/07 03:57:03;;;;;;;;;;;;;;;30.54;19.44;100666.41;5076755;28;806;-44
2022/03/07 03:59:29;;;;;;;;;;;;;;;28.81;21.46;100676.06;5076809;28;1898;-41
2022/03/07 04:01:54;;;;;;;;;;;;;;;28.63;21.90;100677.38;5081975;28;867;-43
2022/03/07 04:04:19;;;;;;;;;;;;;;;28.56;21.70;100671.88;5077129;28;820;-43
2022/03/07 04:06:44;;;;;;;;;;;;;;;28.64;21.70;100678.22;5082489;28;1013;-44
2022/03/07 04:09:16;;;;;;;;;;;;;;;28.77;21.41;100685.59;5096256;28;861;-43
2022/03/07 04:11:42;;;;;;;;;;;;;;;28.79;21.48;100670.84;5095665;28;814;-42
2022/03/07 04:14:07;;;;;;;;;;;;;;;29.13;21.25;100689.22;5096096;28;835;-42
2022/03/07 04:16:32;;;;;;;;;;;;;;;29.15;21.14;100676.31;5082120;28;880;-43
2022/03/07 04:18:58;;;;;;;;;;;;;;;29.07;21.27;100680.03;5083412;28;760;-42
2022/03/07 04:21:26;;;;;;;;;;;;;;;29.26;21.12;100683.88;5077955;28;1914;-42
2022/03/07 04:23:51;;;;;;;;;;;;;;;29.32;20.87;100671.41;5095638;28;848;-43
2022/03/07 04:26:16;;;;;;;;;;;;;;;29.21;21.04;100678.25;5095590;28;1804;-41
2022/03/07 04:28:42;;;;;;;;;;;;;;;29.28;21.05;100679.09;5096040;28;798;-44
2022/03/07 04:31:07;;;;;;;;;;;;;;;29.33;20.77;100678.50;5069068;28;901;-45
2022/03/07 04:33:33;;;;;;;;;;;;;;;29.38;20.93;100675.22;5095487;28;805;-43
2022/03/07 04:35:58;;;;;;;;;;;;;;;29.54;20.80;100671.31;5095407;28;896;-43
2022/03/07 04:38:26;;;;;;;;;;;;;;;29.50;20.99;100670.88;5096247;28;761;-44
2022/03/07 04:40:51;;;;;;;;;;;;;;;29.56;20.60;100680.09;5095296;28;1905;-43
2022/03/07 04:43:17;;;;;;;;;;;;;;;29.61;20.69;100674.09;5092813;28;838;-43
2022/03/07 04:45:42;;;;;;;;;;;;;;;29.45;16.63;100671.50;5089973;28;894;-45
2022/03/07 04:48:07;;;;;;;;;;;;;;;27.32;16.00;100672.56;5076372;28;776;-46
2022/03/07 04:50:32;;;;;;;;;;;;;;;25.84;17.48;100673.53;5078834;28;917;-43
2022/03/07 04:52:58;;;;;;;;;;;;;;;25.54;19.49;100664.16;5080403;28;826;-42
2022/03/07 04:55:23;;;;;;;;;;;;;;;26.86;19.49;100668.09;5077168;28;1543;-41
2022/03/07 04:57:49;;;;;;;;;;;;;;;27.06;19.34;100683.81;5078858;28;1380;-40
2022/03/07 05:00:14;;;;;;;;;;;;;;;27.94;18.51;100677.72;5080820;28;1906;-40
2022/03/07 05:02:39;;;;;;;;;;;;;;;27.57;18.46;100674.13;5080945;28;1198;-40
2022/03/07 05:05:05;;;;;;;;;;;;;;;27.52;18.56;100685.50;5078245;28;1330;-40
2022/03/07 05:07:30;;;;;;;;;;;;;;;27.81;18.30;100666.75;5080227;28;1717;-39
2022/03/07 05:09:55;;;;;;;;;;;;;;;27.63;18.66;100676.06;5085339;28;1272;-41
2022/03/07 05:12:21;;;;;;;;;;;;;;;27.25;19.43;100672.47;5082221;28;841;-41
2022/03/07 05:14:46;;;;;;;;;;;;;;;27.99;18.61;100664.44;5091974;28;1417;-41
2022/03/07 05:17:11;;;;;;;;;;;;;;;27.91;18.82;100664.56;5082606;28;1180;-41
2022/03/07 05:19:36;;;;;;;;;;;;;;;27.71;19.02;100665.16;5083681;28;1909;-41
2022/03/07 05:22:02;;;;;;;;;;;;;;;27.80;19.21;100671.31;5073763;28;1212;-41
2022/03/07 05:24:27;;;;;;;;;;;;;;;27.89;18.83;100668.50;5099475;28;781;-41
2022/03/07 05:26:52;;;;;;;;;;;;;;;27.56;19.28;100669.75;5099439;28;913;-41
2022/03/07 05:29:18;;;;;;;;;;;;;;;27.87;18.89;100660.56;5099271;28;880;-40
2022/03/07 05:31:43;;;;;;;;;;;;;;;27.47;19.47;100667.16;5085846;28;887;-40
2022/03/07 05:34:08;;;;;;;;;;;;;;;27.93;18.88;100661.66;5098403;28;765;-40
2022/03/07 05:36:34;;;;;;;;;;;;;;;27.96;18.99;100664.00;5097465;28;917;-40
2022/03/07 05:38:59;;;;;;;;;;;;;;;28.43;18.39;100666.34;5087522;28;765;-40
2022/03/07 05:41:24;;;;;;;;;;;;;;;28.30;18.32;100657.06;5079476;28;1890;-40
2022/03/07 05:43:50;;;;;;;;;;;;;;;27.24;19.40;100653.75;5079742;28;1460;-40
2022/03/07 05:46:15;;;;;;;;;;;;;;;27.25;19.48;100653.56;5078764;28;888;-40
2022/03/07 05:48:40;;;;;;;;;;;;;;;26.94;19.84;100662.63;5093502;28;865;-39
2022/03/07 05:51:05;;;;;;;;;;;;;;;27.38;19.50;100658.28;5083548;28;1578;-39
2022/03/07 05:53:31;;;;;;;;;;;;;;;27.22;19.55;100664.72;5079014;28;1358;-40
2022/03/07 05:55:56;;;;;;;;;;;;;;;27.53;19.06;100662.84;5065069;28;1327;-40
2022/03/07 05:58:21;;;;;;;;;;;;;;;27.33;19.60;100668.81;5083539;28;766;-40
2022/03/07 06:00:47;;;;;;;;;;;;;;;27.17;19.60;100664.44;5079643;28;1902;-40
2022/03/07 06:03:12;;;;;;;;;;;;;;;27.55;19.48;100668.06;5079252;28;869;-40
2022/03/07 06:05:37;;;;;;;;;;;;;;;27.57;19.77;100672.25;5079472;28;749;-40
2022/03/07 06:08:04;;;;;;;;;;;;;;;27.89;19.21;100676.59;5078894;28;1286;-40
2022/03/07 06:10:29;;;;;;;;;;;;;;;28.15;19.14;100686.88;5079767;28;778;-40
2022/03/07 06:12:54;;;;;;;;;;;;;;;28.02;19.53;100689.44;5073964;28;830;-40
2022/03/07 06:15:20;;;;;;;;;;;;;;;28.23;19.18;100685.91;5096676;28;1128;-41
2022/03/07 06:17:50;;;;;;;;;;;;;;;29.01;18.45;100683.53;5085849;28;857;-43
2022/03/07 06:20:15;;;;;;;;;;;;;;;29.26;18.31;100688.47;5071926;28;1898;-42
2022/03/07 06:22:40;;;;;;;;;;;;;;;27.73;20.00;100687.44;5068471;28;1314;-44
2022/03/07 06:25:06;;;;;;;;;;;;;;;27.14;20.55;100695.34;5075638;28;781;-44
2022/03/07 06:27:31;;;;;;;;;;;;;;;27.45;19.51;100688.09;5097450;28;1491;-42
2022/03/07 06:29:56;;;;;;;;;;;;;;;27.90;18.99;100687.22;5090199;28;1464;-43
2022/03/07 06:32:23;;;;;;;;;;;;;;;27.85;19.35;100679.69;5072781;28;1307;-44
2022/03/07 06:34:49;;;;;;;;;;;;;;;27.74;20.54;100685.59;5091568;28;1203;-41
2022/03/07 06:37:14;;;;;;;;;;;;;;;27.99;19.86;100679.84;5088023;28;1202;-41
2022/03/07 06:39:39;;;;;;;;;;;;;;;28.07;19.39;100687.00;5071221;28;1893;-42
2022/03/07 06:42:05;;;;;;;;;;;;;;;27.76;20.23;100680.81;5069176;28;1413;-44
2022/03/07 06:44:30;;;;;;;;;;;;;;;27.09;21.15;100680.72;5077754;28;1544;-41
2022/03/07 06:46:55;;;;;;;;;;;;;;;27.66;20.32;100680.25;5071997;28;1311;-48
2022/03/07 06:49:20;;;;;;;;;;;;;;;27.79;20.08;100671.50;5072945;28;1514;-42
2022/03/07 06:51:46;;;;;;;;;;;;;;;28.09;20.21;100674.94;5065989;28;1309;-42
2022/03/07 06:54:11;;;;;;;;;;;;;;;28.18;19.63;100681.09;5074495;28;1417;-44
2022/03/07 06:56:36;;;;;;;;;;;;;;;28.12;19.51;100673.75;5068788;28;1293;-41
2022/03/07 06:59:02;;;;;;;;;;;;;;;28.08;19.67;100676.00;5067229;28;1372;-40
2022/03/07 07:01:27;;;;;;;;;;;;;;;28.78;19.00;100674.56;5076158;28;1972;-40
2022/03/07 07:03:52;;;;;;;;;;;;;;;28.87;19.08;100677.13;5064994;28;1352;-39
2022/03/07 07:06:18;;;;;;;;;;;;;;;28.86;18.88;100676.31;5078480;28;1150;-41
2022/03/07 07:08:43;;;;;;;;;;;;;;;27.79;20.40;100668.81;5050625;28;1311;-42
2022/03/07 07:11:08;;;;;;;;;;;;;;;26.34;22.20;100674.06;5071604;28;1603;-41
2022/03/07 07:13:33;;;;;;;;;;;;;;;26.06;22.22;100674.56;5073459;28;1457;-41
2022/03/07 07:15:59;;;;;;;;;;;;;;;27.16;21.11;100670.84;5075583;28;1382;-40
2022/03/07 07:18:24;;;;;;;;;;;;;;;27.17;21.21;100669.00;5068334;28;1250;-42
2022/03/07 07:20:52;;;;;;;;;;;;;;;27.87;20.62;100668.69;5078508;28;1898;-39
2022/03/07 07:23:18;;;;;;;;;;;;;;;28.34;19.53;100671.09;5075759;28;1357;-40
2022/03/07 07:25:43;;;;;;;;;;;;;;;26.92;21.15;100666.53;5079655;28;1393;-39
2022/03/07 07:28:09;;;;;;;;;;;;;;;27.31;20.88;100664.63;5072475;28;1492;-39
2022/03/07 07:30:34;;;;;;;;;;;;;;;27.66;20.25;100666.75;5068325;28;1319;-40
2022/03/07 07:32:59;;;;;;;;;;;;;;;28.09;19.96;100666.03;5063186;28;1357;-39
2022/03/07 07:35:25;;;;;;;;;;;;;;;28.53;19.33;100669.59;5074279;28;1661;-39
2022/03/07 07:37:50;;;;;;;;;;;;;;;28.51;19.03;100662.69;5074390;28;1195;-40
2022/03/07 07:40:15;;;;;;;;;;;;;;;28.19;19.47;100660.28;5071781;28;1894;-41
2022/03/07 07:42:40;;;;;;;;;;;;;;;26.77;21.87;100651.16;5077396;28;1425;-40
2022/03/07 07:45:06;;;;;;;;;;;;;;;27.02;21.53;100654.47;5074556;28;1146;-41
2022/03/07 07:47:31;;;;;;;;;;;;;;;28.22;19.80;100658.03;5076839;28;1369;-41
2022/03/07 07:49:56;;;;;;;;;;;;;;;28.43;19.97;100655.53;5078158;28;1271;-41
2022/03/07 07:52:22;;;;;;;;;;;;;;;28.42;19.82;100652.00;5080342;28;1590;-41
2022/03/07 07:54:47;;;;;;;;;;;;;;;27.29;21.12;100648.63;5054889;28;1153;-40
2022/03/07 07:57:15;;;;;;;;;;;;;;;26.46;22.12;100639.44;5075636;28;1322;-40
2022/03/07 07:59:40;;;;;;;;;;;;;;;27.70;20.33;100641.03;5071175;28;1890;-39
2022/03/07 08:02:06;;;;;;;;;;;;;;;27.85;20.29;100644.56;5069931;28;1275;-39
2022/03/07 08:04:31;;;;;;;;;;;;;;;28.62;19.43;100647.78;5085479;28;1313;-39
2022/03/07 08:06:56;;;;;;;;;;;;;;;28.98;19.03;100646.84;5075548;28;1104;-40
2022/03/07 08:09:22;;;;;;;;;;;;;;;29.10;18.87;100639.00;5079541;28;1267;-40
2022/03/07 08:11:47;;;;;;;;;;;;;;;27.99;20.26;100645.53;5075914;28;1555;-40
2022/03/07 08:14:12;;;;;;;;;;;;;;;27.78;20.63;100634.72;5093519;28;767;-40
2022/03/07 08:16:37;;;;;;;;;;;;;;;27.36;20.56;100644.13;5080178;28;1203;-39
2022/03/07 08:19:03;;;;;;;;;;;;;;;27.93;19.86;100635.47;5077567;28;1315;-40
2022/03/07 08:21:28;;;;;;;;;;;;;;;28.53;19.75;100649.81;5078484;28;1973;-40
2022/03/07 08:23:54;;;;;;;;;;;;;;;28.90;19.43;100641.53;5080778;28;1290;-40
2022/03/07 08:26:19;;;;;;;;;;;;;;;29.35;18.87;100643.91;5073468;28;1139;-40
2022/03/07 08:28:45;;;;;;;;;;;;;;;29.50;18.70;100645.66;5073038;28;1215;-40
2022/03/07 08:31:10;;;;;;;;;;;;;;;27.35;21.02;100647.88;5075050;28;1698;-38
2022/03/07 08:33:35;;;;;;;;;;;;;;;27.41;20.92;100654.38;5072620;28;1234;-38
2022/03/07 08:36:01;;;;;;;;;;;;;;;26.48;22.06;100642.78;5095371;28;838;-38
2022/03/07 08:38:27;;;;;;;;;;;;;;;26.21;22.53;100649.56;5074964;28;1606;-40
2022/03/07 08:40:53;;;;;;;;;;;;;;;27.98;20.42;100648.41;5073016;28;1965;-39
2022/03/07 08:43:19;;;;;;;;;;;;;;;27.66;20.19;100648.66;5071038;28;1568;-40
2022/03/07 08:45:44;;;;;;;;;;;;;;;28.35;19.84;100653.81;5068363;28;1488;-42
2022/03/07 08:48:09;;;;;;;;;;;;;;;29.03;19.36;100659.81;5078628;28;1440;-40
2022/03/07 08:50:34;;;;;;;;;;;;;;;29.33;18.84;100654.13;5076925;28;1699;-41
2022/03/07 08:53:00;;;;;;;;;;;;;;;29.44;18.74;100652.72;5078416;28;1475;-40
2022/03/07 08:55:25;;;;;;;;;;;;;;;28.15;20.26;100659.84;5074862;28;1374;-40
2022/03/07 08:57:50;;;;;;;;;;;;;;;28.24;19.92;100650.56;5089940;28;1460;-40
2022/03/07 09:00:16;;;;;;;;;;;;;;;27.69;20.53;100650.19;5070867;28;1981;-41
2022/03/07 09:02:41;;;;;;;;;;;;;;;27.92;19.93;100644.63;5084251;28;1179;-39
2022/03/07 09:05:07;;;;;;;;;;;;;;;28.81;19.45;100640.88;5070080;28;1204;-41
2022/03/07 09:07:32;;;;;;;;;;;;;;;29.17;18.90;100653.44;5070841;28;1188;-41
2022/03/07 09:09:57;;;;;;;;;;;;;;;29.26;18.56;100640.53;5080842;28;1381;-42
2022/03/07 09:12:27;;;;;;;;;;;;;;;29.35;18.65;100641.22;5063988;28;1184;-41
2022/03/07 09:14:52;;;;;;;;;;;;;;;27.08;21.36;100642.09;5050922;28;1544;-38
2022/03/07 09:17:18;;;;;;;;;;;;;;;27.65;20.72;100641.59;5073839;28;1247;-39
2022/03/07 09:19:43;;;;;;;;;;;;;;;27.69;20.56;100647.47;5065067;28;2009;-39
2022/03/07 09:22:09;;;;;;;;;;;;;;;27.24;20.90;100635.66;5065225;28;1405;-41
2022/03/07 09:24:34;;;;;;;;;;;;;;;27.08;21.24;100639.38;5070710;28;1284;-38
2022/03/07 09:26:59;;;;;;;;;;;;;;;27.95;20.32;100651.50;5079154;28;1252;-38
2022/03/07 09:29:25;;;;;;;;;;;;;;;28.05;19.91;100646.63;5075482;28;1370;-40
2022/03/07 09:31:50;;;;;;;;;;;;;;;28.15;19.79;100643.59;5075888;28;1567;-39
2022/03/07 09:34:15;;;;;;;;;;;;;;;28.53;19.67;100647.13;5071207;28;1171;-40
2022/03/07 09:36:41;;;;;;;;;;;;;;;29.04;18.93;100637.94;5085750;28;1215;-42
2022/03/07 09:39:06;;;;;;;;;;;;;;;29.27;18.66;100638.66;5094526;28;1229;-41
2022/03/07 09:41:31;;;;;;;;;;;;;;;28.91;18.91;100635.91;5069765;28;1947;-41
2022/03/07 09:43:56;;;;;;;;;;;;;;;26.73;21.91;100637.19;5053855;28;1216;-43
2022/03/07 09:46:22;;;;;;;;;;;;;;;27.53;20.27;100638.53;5066569;28;1584;-38
2022/03/07 09:48:47;;;;;;;;;;;;;;;27.93;20.42;100640.88;5069846;28;1206;-41
2022/03/07 09:51:12;;;;;;;;;;;;;;;28.90;19.24;100639.69;5069926;28;1298;-41
2022/03/07 09:53:38;;;;;;;;;;;;;;;29.19;18.65;100645.09;5075305;28;1492;-41
2022/03/07 09:56:03;;;;;;;;;;;;;;;29.28;18.58;100640.34;5073996;28;1202;-41
2022/03/07 09:58:29;;;;;;;;;;;;;;;28.51;19.33;100633.75;5076539;28;1249;-41
2022/03/07 10:01:03;;;;;;;;;;;;;;;27.51;20.99;100637.88;5081084;28;1909;-41
2022/03/07 10:03:29;;;;;;;;;;;;;;;27.76;20.71;100640.28;5060055;28;1537;-41
2022/03/07 10:05:54;;;;;;;;;;;;;;;27.77;20.37;100644.66;5078383;28;1445;-41
2022/03/07 10:08:24;;;;;;;;;;;;;;;28.43;19.40;100644.72;5068458;28;1370;-41
2022/03/07 10:10:52;;;;;;;;;;;;;;;27.77;19.64;100641.13;5078183;28;1211;-41
2022/03/07 10:13:17;;;;;;;;;;;;;;;26.32;21.92;100638.34;5076908;28;1299;-42
2022/03/07 10:15:42;;;;;;;;;;;;;;;26.29;22.22;100633.31;5069554;28;1373;-42
2022/03/07 10:18:11;;;;;;;;;;;;;;;27.58;20.64;100625.28;5072396;28;1506;-42
2022/03/07 10:20:36;;;;;;;;;;;;;;;27.95;20.57;100632.59;5052605;28;1914;-41
2022/03/07 10:23:01;;;;;;;;;;;;;;;27.83;20.61;100633.09;5064847;28;1438;-41
2022/03/07 10:25:31;;;;;;;;;;;;;;;26.49;22.21;100622.88;5073111;28;1298;-42
2022/03/07 10:27:57;;;;;;;;;;;;;;;27.72;20.93;100634.44;5073173;28;1721;-41
2022/03/07 10:30:23;;;;;;;;;;;;;;;28.03;20.20;100632.47;5055121;28;1378;-42
2022/03/07 10:32:57;;;;;;;;;;;;;;;27.45;21.32;100633.22;5082712;28;1309;-42
2022/03/07 10:35:27;;;;;;;;;;;;;;;26.39;22.80;100619.63;5073965;28;1642;-46
2022/03/07 10:37:58;;;;;;;;;;;;;;;27.70;21.52;100619.41;5069843;28;1721;-42
2022/03/07 10:40:24;;;;;;;;;;;;;;;28.28;20.47;100620.44;5082102;28;1894;-40
2022/03/07 10:42:49;;;;;;;;;;;;;;;28.78;20.12;100630.44;5071882;28;1286;-42
2022/03/07 10:45:15;;;;;;;;;;;;;;;29.38;19.57;100623.72;5078388;28;824;-40
2022/03/07 10:47:40;;;;;;;;;;;;;;;29.49;19.25;100623.16;5080046;28;1207;-43
2022/03/07 10:50:05;;;;;;;;;;;;;;;28.30;20.66;100631.88;5076463;28;1256;-39
2022/03/07 10:52:38;;;;;;;;;;;;;;;27.72;21.20;100620.06;5053756;28;1609;-40
2022/03/07 10:55:05;;;;;;;;;;;;;;;29.00;20.08;100614.97;5076586;28;1342;-42
2022/03/07 10:57:33;;;;;;;;;;;;;;;28.94;20.04;100619.31;5076711;28;1195;-42
2022/03/07 11:00:02;;;;;;;;;;;;;;;29.00;20.02;100614.97;5094884;28;1902;-41
2022/03/07 11:02:36;;;;;;;;;;;;;;;28.77;20.08;100620.63;5091098;28;1155;-44
2022/03/07 11:05:01;;;;;;;;;;;;;;;28.83;19.88;100620.69;5058159;28;1238;-44
2022/03/07 11:07:26;;;;;;;;;;;;;;;28.55;20.50;100613.41;5082056;28;1563;-41
2022/03/07 11:09:53;;;;;;;;;;;;;;;26.71;22.74;100609.53;5057482;28;1204;-41
2022/03/07 11:12:18;;;;;;;;;;;;;;;27.47;21.88;100604.16;5075784;28;1308;-45
2022/03/07 11:14:43;;;;;;;;;;;;;;;27.23;22.34;100603.44;5069517;28;1532;-42
2022/03/07 11:17:12;;;;;;;;;;;;;;;26.74;22.75;100605.63;5065802;28;1183;-37
2022/03/07 11:19:37;;;;;;;;;;;;;;;26.48;22.77;100609.56;5055740;28;1967;-39
2022/03/07 11:22:03;;;;;;;;;;;;;;;26.72;22.77;100595.03;5057418;28;1560;-40
2022/03/07 11:24:28;;;;;;;;;;;;;;;27.26;21.96;100600.34;5054276;28;1227;-39
2022/03/07 11:26:54;;;;;;;;;;;;;;;26.92;22.17;100591.78;5067272;28;1338;-39
2022/03/07 11:29:20;;;;;;;;;;;;;;;27.96;20.62;100594.53;5073724;28;1361;-40
2022/03/07 11:31:46;;;;;;;;;;;;;;;28.59;20.06;100593.03;5061114;28;1367;-40
2022/03/07 11:34:12;;;;;;;;;;;;;;;26.81;22.32;100590.38;5071601;28;1318;-38
2022/03/07 11:36:40;;;;;;;;;;;;;;;26.82;22.38;100577.72;5074170;28;1445;-38
2022/03/07 11:39:05;;;;;;;;;;;;;;;27.06;22.04;100578.50;5072645;28;1221;-39
2022/03/07 11:41:31;;;;;;;;;;;;;;;28.30;20.25;100588.59;5067933;28;1979;-39
2022/03/07 11:43:59;;;;;;;;;;;;;;;27.93;20.66;100591.38;5074268;28;1270;-39
2022/03/07 11:46:27;;;;;;;;;;;;;;;28.21;20.03;100594.16;5074139;28;1595;-40
2022/03/07 11:48:53;;;;;;;;;;;;;;;28.30;20.03;100588.59;5074610;28;1282;-40
2022/03/07 11:51:19;;;;;;;;;;;;;;;28.81;19.75;100595.66;5071565;28;1489;-38
2022/03/07 11:53:47;;;;;;;;;;;;;;;28.35;19.21;100586.19;5079513;28;1466;-37
2022/03/07 11:56:16;;;;;;;;;;;;;;;28.42;19.66;100589.78;5067321;28;1311;-39
2022/03/07 11:58:45;;;;;;;;;;;;;;;28.27;19.75;100586.28;5064797;28;1338;-43
2022/03/07 12:01:11;;;;;;;;;;;;;;;26.84;21.79;100589.19;5079325;28;1906;-40
2022/03/07 12:03:36;;;;;;;;;;;;;;;26.43;22.50;100585.84;5090572;28;1295;-39
2022/03/07 12:06:06;;;;;;;;;;;;;;;26.20;22.89;100592.09;5073293;28;1210;-40
2022/03/07 12:08:40;;;;;;;;;;;;;;;26.80;21.92;100582.47;5073521;28;1105;-40
2022/03/07 12:11:07;;;;;;;;;;;;;;;27.22;21.21;100582.88;5074734;28;1411;-39
2022/03/07 12:13:34;;;;;;;;;;;;;;;27.45;21.05;100579.19;5076595;28;775;-40
2022/03/07 12:15:59;;;;;;;;;;;;;;;27.49;21.33;100577.81;5068614;28;1277;-42
2022/03/07 12:18:25;;;;;;;;;;;;;;;28.24;20.15;100580.22;5072184;28;1368;-42
2022/03/07 12:20:51;;;;;;;;;;;;;;;28.63;19.72;100571.81;5087279;28;1906;-42
2022/03/07 12:23:17;;;;;;;;;;;;;;;28.67;19.25;100583.09;5074740;28;956;-42
2022/03/07 12:25:42;;;;;;;;;;;;;;;28.68;19.42;100579.34;5066785;28;1099;-41
2022/03/07 12:28:08;;;;;;;;;;;;;;;27.33;20.98;100576.97;5075679;28;1126;-40
2022/03/07 12:30:33;;;;;;;;;;;;;;;26.89;21.91;100573.28;5077959;28;1321;-40
2022/03/07 12:33:04;;;;;;;;;;;;;;;27.24;21.46;100578.94;5071704;28;1373;-44
2022/03/07 12:35:29;;;;;;;;;;;;;;;27.43;21.46;100583.94;5062341;28;1043;-40
2022/03/07 12:37:55;;;;;;;;;;;;;;;27.57;21.19;100584.94;5077769;28;1300;-40
2022/03/07 12:40:21;;;;;;;;;;;;;;;27.30;20.99;100581.91;5077442;28;1971;-41
2022/03/07 12:42:46;;;;;;;;;;;;;;;28.02;19.97;100586.69;5079896;28;1595;-44